Time;durP1;ratioP1;P1;durP2;ratioP2;P2;SDS_P1;SDS_P2;PMS_P1;PMS_P2;Temp;Humidity;BMP_temperature;BMP_pressure;BME280_temperature;BME280_humidity;BME280_pressure;Samples;Min_cycle;Max_cycle;Signal;HPM_P1;HPM_P2
2024/02/01 00:01:00;;;;;;;;;7.67;7.67;;;;;11.63;65.15;102942.28;5040248;28;54361;-55
2024/02/01 00:03:25;;;;;;;;;10.33;9.33;;;;;11.63;65.21;102947.63;5029557;28;68106;-56
2024/02/01 00:05:50;;;;;;;;;9.67;7.00;;;;;11.63;65.45;102928.97;5048723;28;45395;-55
2024/02/01 00:08:16;;;;;;;;;10.67;9.33;;;;;11.63;65.42;102926.31;5048967;28;74545;-57
2024/02/01 00:10:41;;;;;;;;;8.67;8.00;;;;;11.63;65.55;102914.75;5043185;28;71480;-56
2024/02/01 00:13:06;;;;;;;;;13.67;11.00;;;;;11.62;65.36;102913.00;5038133;28;62645;-56
2024/02/01 00:15:32;;;;;;;;;10.33;10.33;;;;;11.57;65.51;102907.75;5021456;28;57559;-56
2024/02/01 00:17:57;;;;;;;;;8.00;6.67;;;;;11.54;65.88;102902.50;5055182;28;46522;-56
2024/02/01 00:20:22;;;;;;;;;11.00;9.33;;;;;11.51;65.98;102897.22;5051539;28;50676;-56
2024/02/01 00:22:48;;;;;;;;;9.33;8.00;;;;;11.47;66.01;102882.22;5040844;28;45563;-57
2024/02/01 00:25:13;;;;;;;;;7.67;7.67;;;;;11.39;66.00;102885.94;5050029;28;45477;-54
2024/02/01 00:27:38;;;;;;;;;10.00;10.00;;;;;11.35;66.21;102876.22;5037604;28;46921;-55
2024/02/01 00:30:04;;;;;;;;;12.67;9.67;;;;;11.31;66.35;102881.66;5045686;28;72203;-56
2024/02/01 00:32:31;;;;;;;;;13.00;8.00;;;;;11.25;66.58;102883.53;5037420;28;45396;-56
2024/02/01 00:34:57;;;;;;;;;14.33;10.67;;;;;11.19;66.90;102888.97;5047956;28;45503;-56
2024/02/01 00:37:22;;;;;;;;;10.00;10.00;;;;;11.14;66.64;102888.19;5028005;28;45522;-55
2024/02/01 00:39:47;;;;;;;;;8.00;8.00;;;;;11.12;67.48;102870.47;5037364;28;62340;-56
2024/02/01 00:42:13;;;;;;;;;10.67;10.67;;;;;11.09;67.31;102860.75;5042413;28;45576;-56
2024/02/01 00:44:38;;;;;;;;;11.00;11.00;;;;;11.05;67.57;102859.94;5037139;28;70816;-57
2024/02/01 00:47:04;;;;;;;;;11.00;11.00;;;;;11.01;68.18;102854.72;5041509;28;74863;-56
2024/02/01 00:49:29;;;;;;;;;10.33;10.00;;;;;11.00;68.32;102861.84;5008478;28;45446;-56
2024/02/01 00:51:55;;;;;;;;;13.33;12.00;;;;;10.99;68.46;102849.41;5040974;28;65271;-56
2024/02/01 00:54:20;;;;;;;;;10.33;9.00;;;;;10.97;68.32;102843.22;5042099;28;45530;-55
2024/02/01 00:56:45;;;;;;;;;12.00;11.00;;;;;10.94;68.43;102837.97;5038417;28;74596;-56
2024/02/01 00:59:11;;;;;;;;;14.00;12.00;;;;;10.93;68.58;102836.22;5039034;28;73054;-56
2024/02/01 01:01:36;;;;;;;;;12.67;10.33;;;;;10.92;68.98;102835.34;5042776;28;45245;-55
2024/02/01 01:04:02;;;;;;;;;13.33;11.33;;;;;10.92;68.78;102832.69;5053944;28;69428;-56
2024/02/01 01:06:27;;;;;;;;;13.67;10.67;;;;;10.93;69.41;102830.88;5044893;28;46235;-56
2024/02/01 01:08:53;;;;;;;;;10.33;9.00;;;;;10.97;68.94;102837.91;5036350;28;45313;-56
2024/02/01 01:11:18;;;;;;;;;12.00;10.00;;;;;11.01;69.61;102847.59;5041253;28;45265;-56
2024/02/01 01:13:44;;;;;;;;;12.00;11.33;;;;;11.08;69.48;102845.69;5044825;28;67210;-55
2024/02/01 01:16:09;;;;;;;;;12.00;10.00;;;;;11.13;69.35;102846.47;5040741;28;75555;-56
2024/02/01 01:18:34;;;;;;;;;7.00;5.00;;;;;11.16;69.57;102842.88;5057978;28;45323;-55
2024/02/01 01:21:00;;;;;;;;;13.00;9.00;;;;;11.21;69.05;102839.22;5047147;28;68210;-55
2024/02/01 01:23:25;;;;;;;;;14.00;11.33;;;;;11.24;69.45;102840.94;5041679;28;66807;-56
2024/02/01 01:25:50;;;;;;;;;13.00;10.33;;;;;11.28;69.27;102844.41;5051047;28;50871;-56
2024/02/01 01:28:16;;;;;;;;;11.00;11.00;;;;;11.29;69.32;102844.41;5033518;28;49381;-55
2024/02/01 01:30:41;;;;;;;;;11.00;9.33;;;;;11.34;69.16;102836.28;5049718;28;45758;-56
2024/02/01 01:33:06;;;;;;;;;9.00;9.00;;;;;11.36;69.43;102830.00;5046141;28;58349;-56
2024/02/01 01:35:32;;;;;;;;;9.00;7.33;;;;;11.37;69.06;102818.47;5043154;28;75248;-54
2024/02/01 01:37:57;;;;;;;;;10.00;8.67;;;;;11.38;69.53;102827.31;5043951;28;45473;-56
2024/02/01 01:40:23;;;;;;;;;12.00;11.00;;;;;11.41;69.49;102828.13;5026783;28;45903;-57
2024/02/01 01:42:50;;;;;;;;;10.00;10.00;;;;;11.42;69.49;102829.91;5045930;28;45613;-55
2024/02/01 01:45:15;;;;;;;;;12.00;9.00;;;;;11.47;69.09;102826.25;5028182;28;46398;-56
2024/02/01 01:47:41;;;;;;;;;14.33;11.00;;;;;11.50;69.05;102828.84;5046116;28;45587;-56
2024/02/01 01:50:07;;;;;;;;;10.67;10.00;;;;;11.52;69.62;102821.69;5025178;28;45257;-56
2024/02/01 01:52:35;;;;;;;;;10.33;10.33;;;;;11.55;69.71;102824.28;5052214;28;45409;-55
2024/02/01 01:55:01;;;;;;;;;12.33;12.00;;;;;11.57;69.77;102817.16;5033695;28;46246;-56
2024/02/01 01:57:27;;;;;;;;;11.33;11.33;;;;;11.60;69.61;102819.72;5045330;28;45441;-56
2024/02/01 01:59:54;;;;;;;;;12.67;10.33;;;;;11.62;69.41;102806.41;5027993;28;68494;-56
2024/02/01 02:02:19;;;;;;;;;8.33;8.33;;;;;11.62;69.48;102799.25;5016215;28;45499;-56
2024/02/01 02:04:44;;;;;;;;;12.67;12.00;;;;;11.60;69.56;102798.41;5027712;28;65300;-56
2024/02/01 02:07:10;;;;;;;;;10.00;9.00;;;;;11.61;69.70;102789.50;5042795;28;73031;-54
2024/02/01 02:09:35;;;;;;;;;12.33;12.33;;;;;11.63;69.83;102794.78;5051751;28;45499;-56
2024/02/01 02:12:01;;;;;;;;;12.33;11.33;;;;;11.63;69.61;102782.38;5041512;28;68934;-56
2024/02/01 02:14:26;;;;;;;;;13.67;12.33;;;;;11.62;69.58;102782.41;5048368;28;64624;-56
2024/02/01 02:16:51;;;;;;;;;12.67;12.33;;;;;11.63;69.68;102790.38;5040401;28;73034;-56
2024/02/01 02:19:17;;;;;;;;;11.33;11.00;;;;;11.65;69.59;102799.19;5050042;28;45306;-56
2024/02/01 02:21:48;;;;;;;;;12.00;12.00;;;;;11.66;69.52;102797.41;5043624;28;45317;-56
2024/02/01 02:24:14;;;;;;;;;13.00;10.00;;;;;11.65;69.67;102796.50;5044186;28;45336;-56
2024/02/01 02:26:40;;;;;;;;;15.00;14.00;;;;;11.67;69.53;102797.38;5054337;28;45451;-57
2024/02/01 02:29:05;;;;;;;;;12.00;11.00;;;;;11.67;69.67;102799.16;5045963;28;45459;-56
2024/02/01 02:31:30;;;;;;;;;11.67;11.00;;;;;11.67;69.65;102802.69;5041670;28;45210;-55
2024/02/01 02:33:56;;;;;;;;;13.00;10.00;;;;;11.67;69.84;102791.19;5043483;28;61053;-56
2024/02/01 02:36:21;;;;;;;;;12.33;12.33;;;;;11.67;69.85;102792.03;5046951;28;45336;-55
2024/02/01 02:38:46;;;;;;;;;17.67;15.00;;;;;11.68;69.78;102800.91;5041325;28;45438;-56
2024/02/01 02:41:12;;;;;;;;;15.00;10.67;;;;;11.68;69.75;102801.78;5047284;28;70538;-56
2024/02/01 02:43:37;;;;;;;;;19.00;12.67;;;;;11.67;69.65;102810.69;5044147;28;46163;-55
2024/02/01 02:46:03;;;;;;;;;11.33;9.67;;;;;11.68;69.86;102811.56;5041516;28;45435;-56
2024/02/01 02:48:28;;;;;;;;;11.00;11.00;;;;;11.68;69.82;102822.22;5049390;28;46569;-55
2024/02/01 02:50:53;;;;;;;;;13.00;13.00;;;;;11.68;69.98;102830.22;5042472;28;45534;-56
2024/02/01 02:53:19;;;;;;;;;14.00;12.33;;;;;11.69;69.91;102822.22;5043480;28;65710;-55
2024/02/01 02:55:44;;;;;;;;;11.33;11.33;;;;;11.68;69.91;102812.47;5044296;28;73596;-55
2024/02/01 02:58:09;;;;;;;;;13.33;12.67;;;;;11.69;69.99;102808.88;5045820;28;68208;-56
2024/02/01 03:00:35;;;;;;;;;14.00;12.00;;;;;11.70;69.95;102799.09;5041862;28;70379;-56
2024/02/01 03:03:00;;;;;;;;;14.00;12.00;;;;;11.69;69.78;102795.56;5045252;28;62130;-56
2024/02/01 03:05:26;;;;;;;;;11.00;11.00;;;;;11.68;70.05;102799.13;5039929;28;53854;-56
2024/02/01 03:07:53;;;;;;;;;17.00;12.67;;;;;11.67;70.07;102792.03;5051626;28;45376;-55
2024/02/01 03:10:19;;;;;;;;;15.00;11.33;;;;;11.68;70.16;102780.47;5041734;28;45304;-55
2024/02/01 03:12:45;;;;;;;;;12.33;12.00;;;;;11.69;69.70;102779.56;5042629;28;46313;-56
2024/02/01 03:15:10;;;;;;;;;10.67;10.33;;;;;11.70;69.90;102783.97;5046707;28;45431;-56
2024/02/01 03:17:37;;;;;;;;;11.33;11.00;;;;;11.71;69.84;102777.72;5040200;28;45388;-55
2024/02/01 03:20:17;;;;;;;;;14.00;10.67;;;;;11.72;69.86;102786.59;5046664;28;45335;-56
2024/02/01 03:22:46;;;;;;;;;12.33;10.33;;;;;11.72;69.89;102799.91;5039692;28;46145;-56
2024/02/01 03:25:12;;;;;;;;;13.00;11.67;;;;;11.71;69.84;102801.72;5033902;28;45424;-55
2024/02/01 03:27:42;;;;;;;;;13.67;11.00;;;;;11.71;70.21;102807.03;5048875;28;45346;-56
2024/02/01 03:30:11;;;;;;;;;11.33;9.67;;;;;11.70;70.30;102799.09;5050233;28;45433;-56
2024/02/01 03:32:40;;;;;;;;;14.00;13.00;;;;;11.70;70.33;102791.97;5037343;28;46200;-54
2024/02/01 03:35:09;;;;;;;;;13.67;12.67;;;;;11.70;70.40;102783.09;5027027;28;45587;-57
2024/02/01 03:37:34;;;;;;;;;15.00;11.00;;;;;11.72;70.42;102776.81;5044449;28;45312;-56
2024/02/01 03:40:00;;;;;;;;;16.67;13.00;;;;;11.71;70.80;102787.53;5052142;28;47242;-56
2024/02/01 03:42:26;;;;;;;;;12.67;12.00;;;;;11.70;70.76;102783.97;5048767;28;46319;-56
2024/02/01 03:44:51;;;;;;;;;17.33;12.00;;;;;11.69;71.22;102787.56;5038883;28;65285;-56
2024/02/01 03:47:17;;;;;;;;;13.67;12.00;;;;;11.69;71.12;102795.56;5045884;28;69343;-55
2024/02/01 03:49:43;;;;;;;;;14.00;11.33;;;;;11.68;71.05;102800.91;5043248;28;45531;-56
2024/02/01 03:52:08;;;;;;;;;14.00;10.33;;;;;11.68;71.35;102801.78;5038868;28;46286;-55
2024/02/01 03:54:39;;;;;;;;;11.00;11.00;;;;;11.71;71.47;102803.53;5043156;28;45392;-56
2024/02/01 03:57:05;;;;;;;;;11.00;11.00;;;;;11.70;71.41;102791.97;5039976;28;67927;-55
2024/02/01 03:59:32;;;;;;;;;13.00;11.33;;;;;11.71;71.51;102801.72;5046809;28;45408;-55
2024/02/01 04:02:03;;;;;;;;;11.67;9.33;;;;;11.72;71.45;102792.81;5037790;28;46278;-56
2024/02/01 04:04:30;;;;;;;;;14.33;12.00;;;;;11.72;71.70;102787.47;5021491;28;45598;-57
2024/02/01 04:06:55;;;;;;;;;12.33;12.00;;;;;11.73;71.49;102788.34;5036382;28;45522;-57
2024/02/01 04:09:20;;;;;;;;;15.00;13.00;;;;;11.76;71.55;102793.63;5043396;28;63136;-55
2024/02/01 04:11:46;;;;;;;;;10.67;10.67;;;;;11.75;71.64;102792.72;5053476;28;47067;-54
2024/02/01 04:14:11;;;;;;;;;8.33;8.00;;;;;11.76;71.81;102801.63;5054223;28;64558;-55
2024/02/01 04:16:36;;;;;;;;;13.00;11.00;;;;;11.75;71.73;102800.72;5044176;28;45345;-56
2024/02/01 04:19:02;;;;;;;;;9.33;9.33;;;;;11.74;71.62;102792.78;5051814;28;70628;-55
2024/02/01 04:21:27;;;;;;;;;12.00;9.33;;;;;11.75;71.64;102803.41;5049176;28;46232;-54
2024/02/01 04:23:53;;;;;;;;;13.00;11.00;;;;;11.75;71.88;102803.41;5047540;28;45705;-55
2024/02/01 04:26:19;;;;;;;;;15.33;10.33;;;;;11.77;71.76;102798.03;5046906;28;45447;-55
2024/02/01 04:28:44;;;;;;;;;14.67;9.67;;;;;11.75;71.70;102792.72;5038190;28;45515;-55
2024/02/01 04:31:12;;;;;;;;;12.00;12.00;;;;;11.75;72.06;102798.06;5037477;28;46117;-55
2024/02/01 04:33:40;;;;;;;;;13.67;12.00;;;;;11.77;72.16;102797.16;5046987;28;45380;-56
2024/02/01 04:36:07;;;;;;;;;8.00;8.00;;;;;11.78;72.25;102810.44;5053715;28;45380;-56
2024/02/01 04:38:33;;;;;;;;;12.67;11.00;;;;;11.80;71.85;102815.72;5035314;28;45448;-55
2024/02/01 04:40:58;;;;;;;;;6.33;5.00;;;;;11.79;72.08;102812.19;5047878;28;46844;-56
2024/02/01 04:43:24;;;;;;;;;17.67;12.33;;;;;11.79;72.46;102811.34;5043271;28;45377;-56
2024/02/01 04:45:49;;;;;;;;;11.33;9.33;;;;;11.77;72.65;102814.00;5050928;28;45347;-55
2024/02/01 04:48:15;;;;;;;;;13.00;11.33;;;;;11.78;72.86;102822.91;5032813;28;45672;-55
2024/02/01 04:50:40;;;;;;;;;17.00;12.67;;;;;11.76;72.93;102812.28;5041670;28;45996;-56
2024/02/01 04:53:06;;;;;;;;;9.00;9.00;;;;;11.73;73.63;102810.56;5036978;28;71885;-55
2024/02/01 04:55:32;;;;;;;;;13.00;12.00;;;;;11.73;73.65;102805.22;5043729;28;45293;-55
2024/02/01 04:57:58;;;;;;;;;13.00;12.33;;;;;11.72;73.84;102792.81;5049043;28;45458;-56
2024/02/01 05:00:23;;;;;;;;;12.00;12.00;;;;;11.70;74.01;102797.28;5039042;28;46749;-55
2024/02/01 05:02:48;;;;;;;;;13.33;13.33;;;;;11.69;75.00;102792.00;5041765;28;45267;-54
2024/02/01 05:05:15;;;;;;;;;10.00;9.00;;;;;11.67;74.36;102802.69;5021820;28;45482;-55
2024/02/01 05:07:41;;;;;;;;;12.67;11.00;;;;;11.63;74.80;102805.47;5052633;28;45508;-56
2024/02/01 05:10:07;;;;;;;;;12.00;9.00;;;;;11.58;75.17;102805.56;5047718;28;46294;-57
2024/02/01 05:12:35;;;;;;;;;12.00;10.00;;;;;11.56;74.63;102808.28;5043857;28;45431;-55
2024/02/01 05:15:01;;;;;;;;;18.33;14.00;;;;;11.53;76.00;102810.13;5052520;28;45659;-55
2024/02/01 05:17:27;;;;;;;;;11.00;11.00;;;;;11.51;75.65;102810.19;5040541;28;45577;-55
2024/02/01 05:19:52;;;;;;;;;14.00;12.33;;;;;11.50;75.90;102812.84;5040168;28;70266;-55
2024/02/01 05:22:17;;;;;;;;;15.67;11.00;;;;;11.51;76.24;102803.94;5057248;28;45371;-55
2024/02/01 05:24:43;;;;;;;;;14.67;12.67;;;;;11.50;76.60;102812.84;5042030;28;69339;-55
2024/02/01 05:27:08;;;;;;;;;13.33;11.67;;;;;11.49;76.28;102819.97;5042833;28;45500;-55
2024/02/01 05:29:35;;;;;;;;;20.00;11.67;;;;;11.49;76.46;102813.78;5022012;28;75599;-55
2024/02/01 05:32:05;;;;;;;;;11.67;11.33;;;;;11.50;77.14;102815.50;5041701;28;45482;-55
2024/02/01 05:34:31;;;;;;;;;10.33;10.00;;;;;11.51;77.21;102809.28;5028206;28;45634;-56
2024/02/01 05:36:56;;;;;;;;;17.67;14.00;;;;;11.50;77.46;102813.75;5050218;28;45355;-54
2024/02/01 05:39:24;;;;;;;;;14.00;12.00;;;;;11.51;76.88;102809.28;5043681;28;74575;-56
2024/02/01 05:41:52;;;;;;;;;13.67;12.00;;;;;11.48;77.36;102810.22;5040706;28;45311;-55
2024/02/01 05:44:17;;;;;;;;;11.33;11.00;;;;;11.49;77.53;102824.44;5046546;28;45563;-56
2024/02/01 05:46:47;;;;;;;;;15.33;12.00;;;;;11.48;77.93;102828.88;5049550;28;45676;-54
2024/02/01 05:49:12;;;;;;;;;14.33;12.33;;;;;11.49;77.67;102821.78;5040500;28;46427;-54
2024/02/01 05:51:37;;;;;;;;;13.00;11.67;;;;;11.49;78.14;102816.44;5050463;28;61051;-53
2024/02/01 05:54:06;;;;;;;;;15.33;12.00;;;;;11.51;78.10;102819.94;5056980;28;67257;-53
2024/02/01 05:56:31;;;;;;;;;12.33;12.00;;;;;11.52;78.43;102816.38;5041008;28;45640;-52
2024/02/01 05:58:57;;;;;;;;;15.00;13.33;;;;;11.53;77.76;102815.47;5042751;28;74259;-55
2024/02/01 06:01:22;;;;;;;;;12.67;12.67;;;;;11.52;78.35;102819.03;5051172;28;45418;-55
2024/02/01 06:03:47;;;;;;;;;16.00;13.00;;;;;11.53;78.30;102826.13;5047690;28;64054;-55
2024/02/01 06:06:12;;;;;;;;;14.00;14.00;;;;;11.54;78.30;102823.41;5044145;28;66760;-55
2024/02/01 06:08:38;;;;;;;;;20.00;16.00;;;;;11.54;78.57;102830.56;5042389;28;74570;-55
2024/02/01 06:11:03;;;;;;;;;15.67;15.67;;;;;11.52;78.82;102835.88;5053760;28;72237;-55
2024/02/01 06:13:29;;;;;;;;;12.67;11.67;;;;;11.52;78.91;102833.22;5049293;28;51261;-53
2024/02/01 06:15:54;;;;;;;;;12.33;12.00;;;;;11.51;79.08;102831.50;5056560;28;45681;-54
2024/02/01 06:18:19;;;;;;;;;21.00;17.67;;;;;11.53;78.96;102834.13;5048394;28;46146;-55
2024/02/01 06:20:44;;;;;;;;;17.67;15.67;;;;;11.53;78.49;102831.47;5045226;28;72019;-54
2024/02/01 06:23:11;;;;;;;;;16.00;13.00;;;;;11.52;78.89;102832.34;5051610;28;69361;-55
2024/02/01 06:25:38;;;;;;;;;19.00;15.00;;;;;11.51;79.26;102833.25;5049466;28;45416;-54
2024/02/01 06:28:04;;;;;;;;;16.67;14.67;;;;;11.51;78.93;102841.25;5046680;28;46353;-55
2024/02/01 06:30:29;;;;;;;;;15.67;13.00;;;;;11.50;79.22;102843.06;5045291;28;45393;-55
2024/02/01 06:32:54;;;;;;;;;16.00;12.33;;;;;11.50;79.27;102855.47;5039585;28;69211;-56
2024/02/01 06:35:22;;;;;;;;;19.00;15.00;;;;;11.51;79.24;102851.91;5046492;28;45584;-55
2024/02/01 06:38:04;;;;;;;;;16.00;15.00;;;;;11.49;79.30;102857.28;5045657;28;46459;-56
2024/02/01 06:41:06;;;;;;;;;23.33;15.33;;;;;11.50;79.33;102866.16;5045360;28;45398;-55
2024/02/01 06:43:41;;;;;;;;;13.67;13.67;;;;;11.48;91.26;102867.97;5044524;28;45427;-55
2024/02/01 06:46:22;;;;;;;;;18.33;15.00;;;;;11.45;82.23;102865.41;5049475;28;45805;-53
2024/02/01 06:49:01;;;;;;;;;18.33;14.67;;;;;11.44;81.78;102863.63;5045842;28;45657;-54
2024/02/01 06:51:32;;;;;;;;;18.67;18.33;;;;;11.45;81.58;102876.06;5043242;28;45521;-54
2024/02/01 06:54:05;;;;;;;;;19.33;17.33;;;;;11.46;82.38;102870.69;5054056;28;45534;-55
2024/02/01 06:56:51;;;;;;;;;8.67;7.33;;;;;11.47;81.59;102866.22;5053322;28;45557;-54
2024/02/01 06:59:43;;;;;;;;;19.00;16.33;;;;;11.47;82.23;102872.44;5038335;28;47647;-57
2024/02/01 07:02:24;;;;;;;;;18.67;15.00;;;;;11.48;82.40;102879.50;5048656;28;46930;-55
2024/02/01 07:04:53;;;;;;;;;14.00;14.00;;;;;11.47;82.40;102890.22;5044900;28;45634;-54
2024/02/01 07:07:29;;;;;;;;;15.33;15.00;;;;;11.47;82.49;102896.44;5043230;28;45492;-53
2024/02/01 07:09:58;;;;;;;;;18.00;14.33;;;;;11.49;82.77;102899.06;5042603;28;46204;-54
2024/02/01 07:12:53;;;;;;;;;20.00;20.00;;;;;11.49;82.45;102899.06;5044442;28;45554;-54
2024/02/01 07:17:58;;;;;;;;;16.00;14.00;;;;;11.46;83.01;102907.09;5043507;28;45482;-55
2024/02/01 07:20:46;;;;;;;;;14.00;13.33;;;;;11.44;85.01;102908.94;5043057;28;46214;-55
2024/02/01 07:26:01;;;;;;;;;16.00;15.67;;;;;11.48;83.99;102910.63;5043673;28;45704;-56
2024/02/01 07:58:38;;;;;;;;;17.33;17.33;;;;;11.63;85.51;102944.06;5042917;28;45375;-56
2024/02/01 08:01:14;;;;;;;;;19.33;16.00;;;;;11.63;86.45;102952.97;5044671;28;45265;-55
2024/02/01 08:09:13;;;;;;;;;18.00;15.00;;;;;11.72;85.58;102957.19;5049674;28;45286;-55
2024/02/01 08:11:42;;;;;;;;;15.33;14.00;;;;;11.70;85.77;102951.91;5034050;28;45392;-54
2024/02/01 08:14:12;;;;;;;;;19.00;16.00;;;;;11.74;86.78;102955.41;5042394;28;45478;-56
2024/02/01 08:16:42;;;;;;;;;14.00;13.33;;;;;11.81;85.70;102956.13;5022277;28;45409;-55
2024/02/01 08:19:08;;;;;;;;;13.00;13.00;;;;;11.82;85.81;102955.25;5037630;28;45372;-55
2024/02/01 08:21:37;;;;;;;;;17.00;13.67;;;;;11.84;85.76;102956.97;5039495;28;45360;-57
2024/02/01 08:24:05;;;;;;;;;13.00;11.00;;;;;11.89;85.39;102960.41;5040820;28;45390;-56
2024/02/01 08:26:37;;;;;;;;;15.00;14.33;;;;;11.95;85.50;102963.88;5048176;28;45395;-55
2024/02/01 08:29:06;;;;;;;;;15.00;14.33;;;;;11.99;85.01;102962.91;5048264;28;45406;-53
2024/02/01 08:31:36;;;;;;;;;12.00;12.00;;;;;12.01;86.46;102967.31;5053916;28;45325;-53
2024/02/01 08:34:05;;;;;;;;;14.00;14.00;;;;;12.04;85.36;102969.88;5027766;28;46129;-54
2024/02/01 08:36:31;;;;;;;;;9.33;9.33;;;;;12.06;85.16;102976.09;5049378;28;45423;-53
2024/02/01 08:38:56;;;;;;;;;12.00;12.00;;;;;12.11;84.66;102980.44;5048033;28;45509;-53
2024/02/01 08:41:22;;;;;;;;;10.67;7.67;;;;;12.14;84.85;102980.38;5058606;28;45357;-53
2024/02/01 08:43:47;;;;;;;;;10.33;9.33;;;;;12.18;84.82;102971.41;5042602;28;53598;-55
2024/02/01 08:46:12;;;;;;;;;13.00;11.33;;;;;12.21;84.53;102972.19;5034726;28;45465;-55
2024/02/01 08:48:39;;;;;;;;;16.00;14.67;;;;;12.25;84.05;102973.00;5055773;28;53475;-53
2024/02/01 08:51:05;;;;;;;;;11.00;11.00;;;;;12.27;84.29;102987.19;5060884;28;45366;-56
2024/02/01 08:53:31;;;;;;;;;11.67;11.67;;;;;12.29;84.16;102988.03;5041517;28;46012;-54
2024/02/01 08:55:56;;;;;;;;;11.00;10.00;;;;;12.29;83.77;102998.69;5041893;28;45972;-54
2024/02/01 08:58:22;;;;;;;;;11.67;10.33;;;;;12.33;84.25;102999.50;5053076;28;45403;-55
2024/02/01 09:00:49;;;;;;;;;8.67;7.00;;;;;12.36;83.98;102994.13;5053221;28;45467;-54
2024/02/01 09:03:17;;;;;;;;;6.00;5.67;;;;;12.39;83.96;102996.72;5036454;28;46889;-55
2024/02/01 09:05:45;;;;;;;;;9.33;8.33;;;;;12.46;84.08;102989.44;5051028;28;45453;-55
2024/02/01 09:08:12;;;;;;;;;11.00;8.00;;;;;12.53;83.91;102999.06;5054995;28;45756;-54
2024/02/01 09:10:38;;;;;;;;;15.67;9.67;;;;;12.57;83.70;103000.75;5047806;28;45349;-54
2024/02/01 09:13:04;;;;;;;;;9.67;8.00;;;;;12.63;83.71;102989.03;5009019;28;45671;-54
2024/02/01 09:15:31;;;;;;;;;8.67;8.00;;;;;12.66;83.17;102997.88;5043666;28;45425;-53
2024/02/01 09:17:57;;;;;;;;;7.67;7.67;;;;;12.67;82.97;103001.41;5043386;28;45618;-52
2024/02/01 09:20:22;;;;;;;;;4.00;4.00;;;;;12.73;83.15;103001.25;5052836;28;45793;-55
2024/02/01 09:22:50;;;;;;;;;8.33;8.33;;;;;12.78;82.85;102990.47;5055605;28;46041;-54
2024/02/01 09:25:25;;;;;;;;;9.00;7.00;;;;;12.78;82.49;103002.03;5055844;28;45423;-57
2024/02/01 09:27:54;;;;;;;;;7.67;7.67;;;;;12.78;82.76;103003.81;5051780;28;45410;-54
2024/02/01 09:30:22;;;;;;;;;6.00;6.00;;;;;12.79;82.85;103010.91;5053819;28;45475;-54
2024/02/01 09:32:53;;;;;;;;;9.33;7.33;;;;;12.83;82.90;103013.47;5032056;28;45389;-52
2024/02/01 09:35:22;;;;;;;;;8.00;6.67;;;;;12.90;82.88;103014.19;5042406;28;45344;-54
2024/02/01 09:37:54;;;;;;;;;8.00;6.67;;;;;12.94;82.80;103021.22;5054172;28;45379;-54
2024/02/01 09:40:23;;;;;;;;;8.33;8.00;;;;;12.91;88.35;103018.63;5043157;28;45960;-54
2024/02/01 09:42:49;;;;;;;;;7.33;6.33;;;;;12.94;85.74;103026.56;5050652;28;47263;-54
2024/02/01 09:45:16;;;;;;;;;10.00;7.00;;;;;12.94;84.51;103025.69;5027391;28;45325;-54
2024/02/01 09:47:43;;;;;;;;;7.67;7.67;;;;;12.90;84.79;103024.88;5041081;28;45561;-55
2024/02/01 09:50:13;;;;;;;;;9.33;8.00;;;;;12.93;84.10;103026.59;5056759;28;45485;-53
2024/02/01 09:52:42;;;;;;;;;7.67;7.33;;;;;12.97;84.14;103025.59;5058944;28;47186;-54
2024/02/01 09:55:08;;;;;;;;;10.00;9.00;;;;;13.00;83.40;103022.88;5040242;28;45422;-54
2024/02/01 09:57:40;;;;;;;;;12.00;11.67;;;;;13.04;83.27;103033.44;5048748;28;45540;-54
2024/02/01 10:00:15;;;;;;;;;11.33;11.33;;;;;13.10;83.25;103029.72;5045987;28;45467;-55
2024/02/01 10:02:43;;;;;;;;;9.00;9.00;;;;;13.10;82.58;103035.06;5047116;28;46328;-53
2024/02/01 10:05:09;;;;;;;;;11.67;8.67;;;;;13.14;82.94;103036.75;5052187;28;45502;-55
2024/02/01 10:07:35;;;;;;;;;10.00;8.33;;;;;13.18;82.75;103040.22;5042331;28;46550;-54
2024/02/01 10:10:03;;;;;;;;;8.67;8.33;;;;;13.26;82.76;103034.66;5040934;28;45507;-54
2024/02/01 10:12:29;;;;;;;;;9.00;9.00;;;;;13.35;82.54;103031.75;5028009;28;46057;-54
2024/02/01 10:14:55;;;;;;;;;10.00;10.00;;;;;13.44;82.46;103034.25;5040697;28;45290;-54
2024/02/01 10:17:20;;;;;;;;;11.00;9.00;;;;;13.52;82.22;103042.06;5041072;28;45492;-53
2024/02/01 10:19:49;;;;;;;;;10.00;9.00;;;;;13.59;81.75;103046.31;5050673;28;70126;-54
2024/02/01 10:22:15;;;;;;;;;7.33;7.33;;;;;13.59;81.17;103050.78;5042749;28;45423;-53
2024/02/01 10:24:49;;;;;;;;;9.00;8.00;;;;;13.60;81.25;103049.84;5038021;28;45324;-55
2024/02/01 10:27:15;;;;;;;;;9.50;9.50;;;;;13.64;81.14;103055.09;5028540;28;45357;-54
2024/02/01 10:29:42;;;;;;;;;12.00;10.00;;;;;13.64;80.81;103054.22;5046963;28;45638;-53
2024/02/01 10:32:13;;;;;;;;;10.00;10.00;;;;;13.63;81.15;103052.44;5045976;28;47014;-53
2024/02/01 10:34:44;;;;;;;;;12.00;8.33;;;;;13.62;80.58;103056.91;5043060;28;46290;-51
2024/02/01 10:37:12;;;;;;;;;7.00;7.00;;;;;13.57;80.90;103058.81;5051422;28;45649;-55
2024/02/01 10:39:39;;;;;;;;;9.00;8.00;;;;;13.57;81.00;103058.81;5035030;28;45634;-53
2024/02/01 10:42:08;;;;;;;;;7.33;6.00;;;;;13.56;81.13;103057.97;5047594;28;45786;-54
2024/02/01 10:44:39;;;;;;;;;7.67;7.00;;;;;13.59;80.85;103062.34;5011505;28;45425;-54
2024/02/01 10:47:13;;;;;;;;;9.00;8.33;;;;;13.63;80.29;103068.50;5040846;28;45435;-51
2024/02/01 10:49:42;;;;;;;;;7.00;7.00;;;;;13.64;80.34;103060.44;5047216;28;45613;-55
2024/02/01 10:52:08;;;;;;;;;9.00;8.00;;;;;13.69;80.57;103066.53;5028856;28;45549;-53
2024/02/01 10:54:35;;;;;;;;;12.67;10.00;;;;;13.68;81.72;103067.44;5031010;28;46762;-55
2024/02/01 10:57:05;;;;;;;;;8.33;8.00;;;;;13.76;83.11;103059.22;5034520;28;45357;-54
2024/02/01 10:59:30;;;;;;;;;7.00;7.00;;;;;13.87;81.45;103053.56;5041033;28;45868;-54
2024/02/01 11:01:57;;;;;;;;;8.00;8.00;;;;;13.85;81.42;103048.25;5016025;28;46921;-52
2024/02/01 11:04:22;;;;;;;;;13.67;9.67;;;;;13.84;81.57;103051.84;5049651;28;45335;-55
2024/02/01 11:06:49;;;;;;;;;10.00;7.00;;;;;13.87;81.61;103046.41;5042000;28;69324;-53
2024/02/01 11:09:18;;;;;;;;;8.00;8.00;;;;;13.94;81.20;103043.59;5021414;28;45595;-54
2024/02/01 11:11:50;;;;;;;;;12.00;11.00;;;;;14.03;81.72;103035.28;5052782;28;45368;-55
2024/02/01 11:14:26;;;;;;;;;11.33;9.67;;;;;14.22;80.80;103047.19;5025970;28;45578;-53
2024/02/01 11:16:53;;;;;;;;;8.33;8.33;;;;;14.44;80.22;103035.81;5049381;28;45742;-55
2024/02/01 11:19:39;;;;;;;;;9.00;9.00;;;;;14.51;79.47;103033.81;5033610;28;45562;-53
2024/02/01 11:22:05;;;;;;;;;10.00;7.67;;;;;14.50;79.23;103041.00;5043830;28;75697;-52
2024/02/01 11:24:32;;;;;;;;;11.00;9.00;;;;;14.56;79.36;103045.28;5023733;28;45602;-53
2024/02/01 11:27:00;;;;;;;;;9.67;9.00;;;;;14.67;78.95;103048.53;5044648;28;45360;-54
2024/02/01 11:29:28;;;;;;;;;9.00;7.67;;;;;14.73;78.20;103042.09;5049245;28;45395;-54
2024/02/01 11:31:57;;;;;;;;;8.33;8.33;;;;;14.68;78.00;103044.94;5024180;28;45713;-54
2024/02/01 11:34:23;;;;;;;;;10.33;8.67;;;;;14.65;78.40;103046.81;5047726;28;45613;-56
2024/02/01 11:36:49;;;;;;;;;8.00;8.00;;;;;14.65;77.62;103036.09;5042906;28;45697;-56
2024/02/01 11:39:15;;;;;;;;;7.67;7.00;;;;;14.59;77.83;103045.19;5042030;28;45526;-55
2024/02/01 11:41:46;;;;;;;;;9.00;7.00;;;;;14.49;77.69;103038.38;5046411;28;47095;-54
2024/02/01 11:44:14;;;;;;;;;8.33;7.00;;;;;14.42;78.08;103042.16;5040958;28;45523;-56
2024/02/01 11:46:47;;;;;;;;;8.67;6.67;;;;;14.38;77.46;103030.69;5047560;28;45339;-56
2024/02/01 11:49:19;;;;;;;;;7.00;7.00;;;;;14.35;77.81;103030.75;5047747;28;45507;-54
2024/02/01 11:51:45;;;;;;;;;6.67;6.67;;;;;14.38;77.82;103030.69;5047010;28;46225;-53
2024/02/01 11:54:11;;;;;;;;;8.00;7.67;;;;;14.46;77.55;103027.75;5047290;28;45435;-56
2024/02/01 11:56:37;;;;;;;;;7.67;7.67;;;;;14.61;77.57;103026.38;5034691;28;45415;-54